sensor_id;sensor_type;location;lat;lon;timestamp;temperature;humidity
74940;HTU21D;63505;45.226;37.908;2023-11-22T00:00:55;5.33;84.47
74940;HTU21D;63505;45.226;37.908;2023-11-22T00:03:21;5.32;84.55
74940;HTU21D;63505;45.226;37.908;2023-11-22T00:05:50;5.30;84.55
74940;HTU21D;63505;45.226;37.908;2023-11-22T00:08:16;5.25;84.58
74940;HTU21D;63505;45.226;37.908;2023-11-22T00:10:43;5.21;84.60
74940;HTU21D;63505;45.226;37.908;2023-11-22T00:13:10;5.18;84.67
74940;HTU21D;63505;45.226;37.908;2023-11-22T00:15:37;5.19;84.71
74940;HTU21D;63505;45.226;37.908;2023-11-22T00:18:03;5.22;84.69
74940;HTU21D;63505;45.226;37.908;2023-11-22T00:20:30;5.21;84.61
74940;HTU21D;63505;45.226;37.908;2023-11-22T00:22:56;5.18;84.59
74940;HTU21D;63505;45.226;37.908;2023-11-22T00:25:22;5.15;84.61
74940;HTU21D;63505;45.226;37.908;2023-11-22T00:27:48;5.10;84.63
74940;HTU21D;63505;45.226;37.908;2023-11-22T00:30:15;5.06;84.74
74940;HTU21D;63505;45.226;37.908;2023-11-22T00:32:41;5.05;84.77
74940;HTU21D;63505;45.226;37.908;2023-11-22T00:35:07;5.05;84.84
74940;HTU21D;63505;45.226;37.908;2023-11-22T00:37:35;5.03;84.84
74940;HTU21D;63505;45.226;37.908;2023-11-22T00:40:02;5.06;84.86
74940;HTU21D;63505;45.226;37.908;2023-11-22T00:42:39;5.04;84.84
74940;HTU21D;63505;45.226;37.908;2023-11-22T00:45:09;5.06;84.82
74940;HTU21D;63505;45.226;37.908;2023-11-22T00:47:36;5.05;84.79
74940;HTU21D;63505;45.226;37.908;2023-11-22T00:50:03;5.04;84.77
74940;HTU21D;63505;45.226;37.908;2023-11-22T00:52:30;5.01;84.79
74940;HTU21D;63505;45.226;37.908;2023-11-22T00:54:57;5.00;84.87
74940;HTU21D;63505;45.226;37.908;2023-11-22T00:57:23;4.97;84.88
74940;HTU21D;63505;45.226;37.908;2023-11-22T00:59:49;4.95;84.93
74940;HTU21D;63505;45.226;37.908;2023-11-22T01:02:16;4.92;84.99
74940;HTU21D;63505;45.226;37.908;2023-11-22T01:04:42;4.90;85.03
74940;HTU21D;63505;45.226;37.908;2023-11-22T01:07:08;4.87;85.09
74940;HTU21D;63505;45.226;37.908;2023-11-22T01:09:34;4.87;85.13
74940;HTU21D;63505;45.226;37.908;2023-11-22T01:12:00;4.83;85.18
74940;HTU21D;63505;45.226;37.908;2023-11-22T01:14:26;4.80;85.22
74940;HTU21D;63505;45.226;37.908;2023-11-22T01:16:53;4.82;85.34
74940;HTU21D;63505;45.226;37.908;2023-11-22T01:19:22;4.80;85.28
74940;HTU21D;63505;45.226;37.908;2023-11-22T01:21:48;4.77;85.36
74940;HTU21D;63505;45.226;37.908;2023-11-22T01:24:14;4.74;85.40
74940;HTU21D;63505;45.226;37.908;2023-11-22T01:26:40;4.71;85.44
74940;HTU21D;63505;45.226;37.908;2023-11-22T01:29:06;4.68;85.48
74940;HTU21D;63505;45.226;37.908;2023-11-22T01:31:32;4.67;85.53
74940;HTU21D;63505;45.226;37.908;2023-11-22T01:34:01;4.65;85.54
74940;HTU21D;63505;45.226;37.908;2023-11-22T01:36:29;4.63;85.52
74940;HTU21D;63505;45.226;37.908;2023-11-22T01:38:55;4.58;85.55
74940;HTU21D;63505;45.226;37.908;2023-11-22T01:41:21;4.56;85.57
74940;HTU21D;63505;45.226;37.908;2023-11-22T01:43:47;4.51;85.61
74940;HTU21D;63505;45.226;37.908;2023-11-22T01:46:24;4.48;85.64
74940;HTU21D;63505;45.226;37.908;2023-11-22T01:48:51;4.44;85.67
74940;HTU21D;63505;45.226;37.908;2023-11-22T01:51:23;4.39;85.70
74940;HTU21D;63505;45.226;37.908;2023-11-22T01:53:52;4.35;85.72
74940;HTU21D;63505;45.226;37.908;2023-11-22T01:56:26;4.31;85.74
74940;HTU21D;63505;45.226;37.908;2023-11-22T01:58:54;4.27;85.75
74940;HTU21D;63505;45.226;37.908;2023-11-22T02:01:21;4.20;85.82
74940;HTU21D;63505;45.226;37.908;2023-11-22T02:03:47;4.20;85.85
74940;HTU21D;63505;45.226;37.908;2023-11-22T02:06:15;4.16;85.88
74940;HTU21D;63505;45.226;37.908;2023-11-22T02:08:44;4.16;85.89
74940;HTU21D;63505;45.226;37.908;2023-11-22T02:11:10;4.13;85.89
74940;HTU21D;63505;45.226;37.908;2023-11-22T02:13:36;4.13;85.88
74940;HTU21D;63505;45.226;37.908;2023-11-22T02:16:03;4.08;85.88
74940;HTU21D;63505;45.226;37.908;2023-11-22T02:18:29;4.05;85.89
74940;HTU21D;63505;45.226;37.908;2023-11-22T02:20:56;4.01;85.91
74940;HTU21D;63505;45.226;37.908;2023-11-22T02:23:22;3.98;85.96
74940;HTU21D;63505;45.226;37.908;2023-11-22T02:25:49;3.94;86.01
74940;HTU21D;63505;45.226;37.908;2023-11-22T02:28:15;3.91;86.03
74940;HTU21D;63505;45.226;37.908;2023-11-22T02:30:42;3.89;86.05
74940;HTU21D;63505;45.226;37.908;2023-11-22T02:33:08;3.90;86.11
74940;HTU21D;63505;45.226;37.908;2023-11-22T02:35:34;3.88;86.10
74940;HTU21D;63505;45.226;37.908;2023-11-22T02:38:00;3.85;86.07
74940;HTU21D;63505;45.226;37.908;2023-11-22T02:40:26;3.78;86.09
74940;HTU21D;63505;45.226;37.908;2023-11-22T02:42:53;3.73;86.24
74940;HTU21D;63505;45.226;37.908;2023-11-22T02:45:21;3.70;86.34
74940;HTU21D;63505;45.226;37.908;2023-11-22T02:47:48;3.69;86.37
74940;HTU21D;63505;45.226;37.908;2023-11-22T02:50:16;3.67;86.45
74940;HTU21D;63505;45.226;37.908;2023-11-22T02:52:42;3.65;86.49
74940;HTU21D;63505;45.226;37.908;2023-11-22T02:55:08;3.69;86.52
74940;HTU21D;63505;45.226;37.908;2023-11-22T02:57:36;3.65;86.42
74940;HTU21D;63505;45.226;37.908;2023-11-22T03:00:04;3.61;86.45
74940;HTU21D;63505;45.226;37.908;2023-11-22T03:02:30;3.55;86.51
74940;HTU21D;63505;45.226;37.908;2023-11-22T03:04:57;3.53;86.65
74940;HTU21D;63505;45.226;37.908;2023-11-22T03:07:25;3.49;86.77
74940;HTU21D;63505;45.226;37.908;2023-11-22T03:09:51;3.48;86.90
74940;HTU21D;63505;45.226;37.908;2023-11-22T03:12:19;3.47;87.01
74940;HTU21D;63505;45.226;37.908;2023-11-22T03:14:46;3.48;87.20
74940;HTU21D;63505;45.226;37.908;2023-11-22T03:17:14;3.50;87.22
74940;HTU21D;63505;45.226;37.908;2023-11-22T03:19:40;3.50;87.21
74940;HTU21D;63505;45.226;37.908;2023-11-22T03:22:06;3.53;87.22
74940;HTU21D;63505;45.226;37.908;2023-11-22T03:24:33;3.57;87.22
74940;HTU21D;63505;45.226;37.908;2023-11-22T03:27:04;3.57;87.19
74940;HTU21D;63505;45.226;37.908;2023-11-22T03:29:32;3.59;87.20
74940;HTU21D;63505;45.226;37.908;2023-11-22T03:31:58;3.61;87.14
74940;HTU21D;63505;45.226;37.908;2023-11-22T03:34:24;3.61;87.09
74940;HTU21D;63505;45.226;37.908;2023-11-22T03:36:50;3.59;87.11
74940;HTU21D;63505;45.226;37.908;2023-11-22T03:39:16;3.59;87.15
74940;HTU21D;63505;45.226;37.908;2023-11-22T03:41:42;3.61;87.13
74940;HTU21D;63505;45.226;37.908;2023-11-22T03:44:08;3.59;87.08
74940;HTU21D;63505;45.226;37.908;2023-11-22T03:46:38;3.57;87.10
74940;HTU21D;63505;45.226;37.908;2023-11-22T03:49:05;3.60;87.21
74940;HTU21D;63505;45.226;37.908;2023-11-22T03:51:35;3.64;87.19
74940;HTU21D;63505;45.226;37.908;2023-11-22T03:54:02;3.64;87.09
74940;HTU21D;63505;45.226;37.908;2023-11-22T03:56:29;3.62;87.05
74940;HTU21D;63505;45.226;37.908;2023-11-22T03:58:55;3.58;87.06
74940;HTU21D;63505;45.226;37.908;2023-11-22T04:01:21;3.55;87.06
74940;HTU21D;63505;45.226;37.908;2023-11-22T04:03:48;3.54;87.09
74940;HTU21D;63505;45.226;37.908;2023-11-22T04:06:15;3.47;87.12
74940;HTU21D;63505;45.226;37.908;2023-11-22T04:08:45;3.44;87.21
74940;HTU21D;63505;45.226;37.908;2023-11-22T04:11:15;3.41;87.28
74940;HTU21D;63505;45.226;37.908;2023-11-22T04:13:42;3.40;87.32
74940;HTU21D;63505;45.226;37.908;2023-11-22T04:16:08;3.40;87.40
74940;HTU21D;63505;45.226;37.908;2023-11-22T04:18:35;3.40;87.44
74940;HTU21D;63505;45.226;37.908;2023-11-22T04:21:04;3.39;87.45
74940;HTU21D;63505;45.226;37.908;2023-11-22T04:23:33;3.41;87.53
74940;HTU21D;63505;45.226;37.908;2023-11-22T04:26:00;3.44;87.46
74940;HTU21D;63505;45.226;37.908;2023-11-22T04:28:26;3.44;87.36
74940;HTU21D;63505;45.226;37.908;2023-11-22T04:30:53;3.44;87.40
74940;HTU21D;63505;45.226;37.908;2023-11-22T04:33:20;3.43;87.38
74940;HTU21D;63505;45.226;37.908;2023-11-22T04:35:49;3.44;87.41
74940;HTU21D;63505;45.226;37.908;2023-11-22T04:38:15;3.45;87.46
74940;HTU21D;63505;45.226;37.908;2023-11-22T04:40:41;3.46;87.45
74940;HTU21D;63505;45.226;37.908;2023-11-22T04:43:10;3.50;87.43
74940;HTU21D;63505;45.226;37.908;2023-11-22T04:45:36;3.50;87.35
74940;HTU21D;63505;45.226;37.908;2023-11-22T04:48:03;3.48;87.35
74940;HTU21D;63505;45.226;37.908;2023-11-22T04:50:29;3.48;87.37
74940;HTU21D;63505;45.226;37.908;2023-11-22T04:52:56;3.50;87.32
74940;HTU21D;63505;45.226;37.908;2023-11-22T04:55:22;3.48;87.28
74940;HTU21D;63505;45.226;37.908;2023-11-22T04:57:51;3.54;87.45
74940;HTU21D;63505;45.226;37.908;2023-11-22T05:00:18;3.57;87.22
74940;HTU21D;63505;45.226;37.908;2023-11-22T05:02:44;3.54;87.15
74940;HTU21D;63505;45.226;37.908;2023-11-22T05:05:10;3.45;87.13
74940;HTU21D;63505;45.226;37.908;2023-11-22T05:07:37;3.41;87.19
74940;HTU21D;63505;45.226;37.908;2023-11-22T05:10:04;3.35;87.22
74940;HTU21D;63505;45.226;37.908;2023-11-22T05:12:30;3.28;87.23
74940;HTU21D;63505;45.226;37.908;2023-11-22T05:14:56;3.23;87.32
74940;HTU21D;63505;45.226;37.908;2023-11-22T05:17:22;3.18;87.37
74940;HTU21D;63505;45.226;37.908;2023-11-22T05:19:49;3.16;87.39
74940;HTU21D;63505;45.226;37.908;2023-11-22T05:22:15;3.13;87.41
74940;HTU21D;63505;45.226;37.908;2023-11-22T05:24:41;3.09;87.44
74940;HTU21D;63505;45.226;37.908;2023-11-22T05:27:08;3.05;87.43
74940;HTU21D;63505;45.226;37.908;2023-11-22T05:29:34;3.03;87.45
74940;HTU21D;63505;45.226;37.908;2023-11-22T05:32:00;3.01;87.43
74940;HTU21D;63505;45.226;37.908;2023-11-22T05:34:26;2.98;87.41
74940;HTU21D;63505;45.226;37.908;2023-11-22T05:36:53;2.91;87.46
74940;HTU21D;63505;45.226;37.908;2023-11-22T05:39:18;2.89;87.50
74940;HTU21D;63505;45.226;37.908;2023-11-22T05:41:44;2.88;87.54
74940;HTU21D;63505;45.226;37.908;2023-11-22T05:44:10;2.88;87.52
74940;HTU21D;63505;45.226;37.908;2023-11-22T05:46:36;2.86;87.48
74940;HTU21D;63505;45.226;37.908;2023-11-22T05:49:04;2.85;87.45
74940;HTU21D;63505;45.226;37.908;2023-11-22T05:51:30;2.81;87.44
74940;HTU21D;63505;45.226;37.908;2023-11-22T05:53:55;2.76;87.43
74940;HTU21D;63505;45.226;37.908;2023-11-22T05:56:22;2.75;87.48
74940;HTU21D;63505;45.226;37.908;2023-11-22T05:58:47;2.69;87.48
74940;HTU21D;63505;45.226;37.908;2023-11-22T06:01:13;2.69;87.53
74940;HTU21D;63505;45.226;37.908;2023-11-22T06:03:39;2.69;87.49
74940;HTU21D;63505;45.226;37.908;2023-11-22T06:06:06;2.69;87.49
74940;HTU21D;63505;45.226;37.908;2023-11-22T06:08:32;2.66;87.44
74940;HTU21D;63505;45.226;37.908;2023-11-22T06:10:58;2.61;87.47
74940;HTU21D;63505;45.226;37.908;2023-11-22T06:13:26;2.61;87.44
74940;HTU21D;63505;45.226;37.908;2023-11-22T06:15:52;2.58;87.43
74940;HTU21D;63505;45.226;37.908;2023-11-22T06:18:18;2.56;87.46
74940;HTU21D;63505;45.226;37.908;2023-11-22T06:20:45;2.54;87.48
74940;HTU21D;63505;45.226;37.908;2023-11-22T06:23:13;2.53;87.46
74940;HTU21D;63505;45.226;37.908;2023-11-22T06:25:39;2.51;87.48
74940;HTU21D;63505;45.226;37.908;2023-11-22T06:28:08;2.50;87.47
74940;HTU21D;63505;45.226;37.908;2023-11-22T06:30:34;2.46;87.41
74940;HTU21D;63505;45.226;37.908;2023-11-22T06:33:01;2.43;87.50
74940;HTU21D;63505;45.226;37.908;2023-11-22T06:35:27;2.41;87.51
74940;HTU21D;63505;45.226;37.908;2023-11-22T06:37:53;2.38;87.50
74940;HTU21D;63505;45.226;37.908;2023-11-22T06:40:19;2.31;87.52
74940;HTU21D;63505;45.226;37.908;2023-11-22T06:42:48;2.30;87.60
74940;HTU21D;63505;45.226;37.908;2023-11-22T06:45:14;2.29;87.61
74940;HTU21D;63505;45.226;37.908;2023-11-22T06:47:41;2.34;87.73
74940;HTU21D;63505;45.226;37.908;2023-11-22T06:50:08;2.41;87.67
74940;HTU21D;63505;45.226;37.908;2023-11-22T06:52:35;2.43;87.57
74940;HTU21D;63505;45.226;37.908;2023-11-22T06:55:02;2.41;87.44
74940;HTU21D;63505;45.226;37.908;2023-11-22T06:57:28;2.38;87.38
74940;HTU21D;63505;45.226;37.908;2023-11-22T06:59:55;2.34;87.38
74940;HTU21D;63505;45.226;37.908;2023-11-22T07:02:22;2.29;87.40
74940;HTU21D;63505;45.226;37.908;2023-11-22T07:04:48;2.27;87.46
74940;HTU21D;63505;45.226;37.908;2023-11-22T07:07:14;2.29;87.48
74940;HTU21D;63505;45.226;37.908;2023-11-22T07:09:44;2.30;87.47
74940;HTU21D;63505;45.226;37.908;2023-11-22T07:12:10;2.27;87.45
74940;HTU21D;63505;45.226;37.908;2023-11-22T07:14:36;2.25;87.43
74940;HTU21D;63505;45.226;37.908;2023-11-22T07:17:02;2.22;87.44
74940;HTU21D;63505;45.226;37.908;2023-11-22T07:19:29;2.20;87.57
74940;HTU21D;63505;45.226;37.908;2023-11-22T07:21:55;2.20;87.53
74940;HTU21D;63505;45.226;37.908;2023-11-22T07:24:21;2.14;87.44
74940;HTU21D;63505;45.226;37.908;2023-11-22T07:26:47;2.08;87.60
74940;HTU21D;63505;45.226;37.908;2023-11-22T07:29:13;2.07;87.67
74940;HTU21D;63505;45.226;37.908;2023-11-22T07:31:39;2.10;87.84
74940;HTU21D;63505;45.226;37.908;2023-11-22T07:34:05;2.15;87.72
74940;HTU21D;63505;45.226;37.908;2023-11-22T07:36:32;2.14;87.64
74940;HTU21D;63505;45.226;37.908;2023-11-22T07:38:58;2.09;87.61
74940;HTU21D;63505;45.226;37.908;2023-11-22T07:41:24;2.06;87.67
74940;HTU21D;63505;45.226;37.908;2023-11-22T07:43:52;2.06;87.77
74940;HTU21D;63505;45.226;37.908;2023-11-22T07:46:19;2.05;87.76
74940;HTU21D;63505;45.226;37.908;2023-11-22T07:48:46;2.03;87.73
74940;HTU21D;63505;45.226;37.908;2023-11-22T07:51:13;1.99;87.78
74940;HTU21D;63505;45.226;37.908;2023-11-22T07:53:42;1.99;87.80
74940;HTU21D;63505;45.226;37.908;2023-11-22T07:56:09;1.97;87.76
74940;HTU21D;63505;45.226;37.908;2023-11-22T07:58:37;1.94;87.80
74940;HTU21D;63505;45.226;37.908;2023-11-22T08:01:03;1.93;87.79
74940;HTU21D;63505;45.226;37.908;2023-11-22T08:03:30;1.90;87.82
74940;HTU21D;63505;45.226;37.908;2023-11-22T08:05:56;1.91;87.81
74940;HTU21D;63505;45.226;37.908;2023-11-22T08:08:23;1.88;87.83
74940;HTU21D;63505;45.226;37.908;2023-11-22T08:10:50;1.86;87.81
74940;HTU21D;63505;45.226;37.908;2023-11-22T08:13:19;1.87;87.80
74940;HTU21D;63505;45.226;37.908;2023-11-22T08:15:48;1.84;87.80
74940;HTU21D;63505;45.226;37.908;2023-11-22T08:18:14;1.85;87.87
74940;HTU21D;63505;45.226;37.908;2023-11-22T08:20:43;1.86;87.77
74940;HTU21D;63505;45.226;37.908;2023-11-22T08:23:09;1.86;87.71
74940;HTU21D;63505;45.226;37.908;2023-11-22T08:25:36;1.86;87.73
74940;HTU21D;63505;45.226;37.908;2023-11-22T08:28:04;1.88;87.69
74940;HTU21D;63505;45.226;37.908;2023-11-22T08:30:34;1.86;87.62
74940;HTU21D;63505;45.226;37.908;2023-11-22T08:33:03;1.79;87.56
74940;HTU21D;63505;45.226;37.908;2023-11-22T08:35:29;1.77;87.76
74940;HTU21D;63505;45.226;37.908;2023-11-22T08:37:55;1.79;87.79
74940;HTU21D;63505;45.226;37.908;2023-11-22T08:40:23;1.81;87.83
74940;HTU21D;63505;45.226;37.908;2023-11-22T08:42:49;1.80;87.70
74940;HTU21D;63505;45.226;37.908;2023-11-22T08:45:15;1.76;87.76
74940;HTU21D;63505;45.226;37.908;2023-11-22T08:47:42;1.73;87.84
74940;HTU21D;63505;45.226;37.908;2023-11-22T08:50:09;1.72;87.94
74940;HTU21D;63505;45.226;37.908;2023-11-22T08:52:38;1.75;87.96
74940;HTU21D;63505;45.226;37.908;2023-11-22T08:55:08;1.73;87.96
74940;HTU21D;63505;45.226;37.908;2023-11-22T08:57:37;1.76;88.06
74940;HTU21D;63505;45.226;37.908;2023-11-22T09:00:04;1.78;88.05
74940;HTU21D;63505;45.226;37.908;2023-11-22T09:02:38;1.80;88.09
74940;HTU21D;63505;45.226;37.908;2023-11-22T09:05:05;1.82;88.06
74940;HTU21D;63505;45.226;37.908;2023-11-22T09:07:34;1.84;88.10
74940;HTU21D;63505;45.226;37.908;2023-11-22T09:10:02;1.85;88.15
74940;HTU21D;63505;45.226;37.908;2023-11-22T09:12:36;1.87;88.12
74940;HTU21D;63505;45.226;37.908;2023-11-22T09:15:08;1.92;88.14
74940;HTU21D;63505;45.226;37.908;2023-11-22T09:17:37;1.94;88.04
74940;HTU21D;63505;45.226;37.908;2023-11-22T09:20:14;1.93;88.02
74940;HTU21D;63505;45.226;37.908;2023-11-22T09:25:23;1.88;88.06
74940;HTU21D;63505;45.226;37.908;2023-11-22T09:27:55;1.90;88.09
74940;HTU21D;63505;45.226;37.908;2023-11-22T09:30:23;1.93;88.10
74940;HTU21D;63505;45.226;37.908;2023-11-22T09:35:30;1.96;88.10
74940;HTU21D;63505;45.226;37.908;2023-11-22T09:38:02;1.98;88.08
74940;HTU21D;63505;45.226;37.908;2023-11-22T09:40:28;2.01;88.10
74940;HTU21D;63505;45.226;37.908;2023-11-22T09:42:58;2.05;88.06
74940;HTU21D;63505;45.226;37.908;2023-11-22T09:45:27;2.09;88.06
74940;HTU21D;63505;45.226;37.908;2023-11-22T09:47:55;2.10;88.02
74940;HTU21D;63505;45.226;37.908;2023-11-22T09:50:40;2.13;88.00
74940;HTU21D;63505;45.226;37.908;2023-11-22T09:53:13;2.14;88.00
74940;HTU21D;63505;45.226;37.908;2023-11-22T09:55:41;2.16;87.98
74940;HTU21D;63505;45.226;37.908;2023-11-22T09:58:11;2.19;88.02
74940;HTU21D;63505;45.226;37.908;2023-11-22T10:00:38;2.25;87.99
74940;HTU21D;63505;45.226;37.908;2023-11-22T10:03:05;2.23;87.96
74940;HTU21D;63505;45.226;37.908;2023-11-22T10:05:31;2.26;88.04
74940;HTU21D;63505;45.226;37.908;2023-11-22T10:07:56;2.32;88.01
74940;HTU21D;63505;45.226;37.908;2023-11-22T10:10:22;2.35;87.92
74940;HTU21D;63505;45.226;37.908;2023-11-22T10:12:55;2.29;87.83
74940;HTU21D;63505;45.226;37.908;2023-11-22T10:15:27;2.25;87.96
74940;HTU21D;63505;45.226;37.908;2023-11-22T10:17:54;2.25;87.99
74940;HTU21D;63505;45.226;37.908;2023-11-22T10:20:25;2.24;87.96
74940;HTU21D;63505;45.226;37.908;2023-11-22T10:22:54;2.22;88.00
74940;HTU21D;63505;45.226;37.908;2023-11-22T10:25:20;2.25;88.13
74940;HTU21D;63505;45.226;37.908;2023-11-22T10:27:48;2.31;88.06
74940;HTU21D;63505;45.226;37.908;2023-11-22T10:30:18;2.35;87.98
74940;HTU21D;63505;45.226;37.908;2023-11-22T10:32:45;2.32;87.95
74940;HTU21D;63505;45.226;37.908;2023-11-22T10:35:11;2.32;87.94
74940;HTU21D;63505;45.226;37.908;2023-11-22T10:37:42;2.30;87.93
74940;HTU21D;63505;45.226;37.908;2023-11-22T10:40:13;2.30;87.97
74940;HTU21D;63505;45.226;37.908;2023-11-22T10:42:42;2.31;88.06
74940;HTU21D;63505;45.226;37.908;2023-11-22T10:45:09;2.37;88.12
74940;HTU21D;63505;45.226;37.908;2023-11-22T10:47:37;2.42;88.02
74940;HTU21D;63505;45.226;37.908;2023-11-22T10:50:05;2.40;87.97
74940;HTU21D;63505;45.226;37.908;2023-11-22T10:52:35;2.41;87.98
74940;HTU21D;63505;45.226;37.908;2023-11-22T10:55:05;2.38;87.92
74940;HTU21D;63505;45.226;37.908;2023-11-22T10:57:46;2.40;88.10
74940;HTU21D;63505;45.226;37.908;2023-11-22T11:00:15;2.57;88.23
74940;HTU21D;63505;45.226;37.908;2023-11-22T11:02:44;2.69;88.03
74940;HTU21D;63505;45.226;37.908;2023-11-22T11:05:21;2.64;87.61
74940;HTU21D;63505;45.226;37.908;2023-11-22T11:07:50;2.45;87.68
74940;HTU21D;63505;45.226;37.908;2023-11-22T11:10:20;2.34;87.97
74940;HTU21D;63505;45.226;37.908;2023-11-22T11:12:47;2.35;88.20
74940;HTU21D;63505;45.226;37.908;2023-11-22T11:15:14;2.35;88.22
74940;HTU21D;63505;45.226;37.908;2023-11-22T11:17:42;2.35;88.24
74940;HTU21D;63505;45.226;37.908;2023-11-22T11:20:10;2.35;88.31
74940;HTU21D;63505;45.226;37.908;2023-11-22T11:22:39;2.35;88.37
74940;HTU21D;63505;45.226;37.908;2023-11-22T11:25:06;2.37;88.39
74940;HTU21D;63505;45.226;37.908;2023-11-22T11:27:34;2.39;88.43
74940;HTU21D;63505;45.226;37.908;2023-11-22T11:33:06;2.37;88.38
74940;HTU21D;63505;45.226;37.908;2023-11-22T11:35:42;2.41;88.47
74940;HTU21D;63505;45.226;37.908;2023-11-22T11:38:08;2.44;88.45
74940;HTU21D;63505;45.226;37.908;2023-11-22T11:40:35;2.47;88.38
74940;HTU21D;63505;45.226;37.908;2023-11-22T11:43:04;2.47;88.35
74940;HTU21D;63505;45.226;37.908;2023-11-22T11:45:30;2.46;88.40
74940;HTU21D;63505;45.226;37.908;2023-11-22T11:47:57;2.45;88.36
74940;HTU21D;63505;45.226;37.908;2023-11-22T11:50:22;2.43;88.44
74940;HTU21D;63505;45.226;37.908;2023-11-22T11:52:49;2.43;88.46
74940;HTU21D;63505;45.226;37.908;2023-11-22T11:55:15;2.43;88.54
74940;HTU21D;63505;45.226;37.908;2023-11-22T11:57:41;2.44;88.57
74940;HTU21D;63505;45.226;37.908;2023-11-22T12:00:08;2.47;88.61
74940;HTU21D;63505;45.226;37.908;2023-11-22T12:02:38;2.49;88.54
74940;HTU21D;63505;45.226;37.908;2023-11-22T12:05:04;2.49;88.56
74940;HTU21D;63505;45.226;37.908;2023-11-22T12:07:37;2.49;88.60
74940;HTU21D;63505;45.226;37.908;2023-11-22T12:10:03;2.50;88.61
74940;HTU21D;63505;45.226;37.908;2023-11-22T12:12:32;2.51;88.64
74940;HTU21D;63505;45.226;37.908;2023-11-22T12:14:58;2.55;88.66
74940;HTU21D;63505;45.226;37.908;2023-11-22T12:17:26;2.55;88.57
74940;HTU21D;63505;45.226;37.908;2023-11-22T12:19:53;2.55;88.60
74940;HTU21D;63505;45.226;37.908;2023-11-22T12:22:20;2.57;88.61
74940;HTU21D;63505;45.226;37.908;2023-11-22T12:24:46;2.58;88.57
74940;HTU21D;63505;45.226;37.908;2023-11-22T12:27:12;2.58;88.64
74940;HTU21D;63505;45.226;37.908;2023-11-22T12:29:39;2.57;88.62
74940;HTU21D;63505;45.226;37.908;2023-11-22T12:32:07;2.59;88.64
74940;HTU21D;63505;45.226;37.908;2023-11-22T12:34:33;2.59;88.64
74940;HTU21D;63505;45.226;37.908;2023-11-22T12:36:59;2.59;88.68
74940;HTU21D;63505;45.226;37.908;2023-11-22T12:39:26;2.59;88.64
74940;HTU21D;63505;45.226;37.908;2023-11-22T12:41:53;2.58;88.70
74940;HTU21D;63505;45.226;37.908;2023-11-22T12:44:20;2.61;88.75
74940;HTU21D;63505;45.226;37.908;2023-11-22T12:46:47;2.64;88.73
74940;HTU21D;63505;45.226;37.908;2023-11-22T12:49:15;2.64;88.70
74940;HTU21D;63505;45.226;37.908;2023-11-22T12:51:49;2.64;88.70
74940;HTU21D;63505;45.226;37.908;2023-11-22T12:54:15;2.62;88.70
74940;HTU21D;63505;45.226;37.908;2023-11-22T12:56:42;2.64;88.75
74940;HTU21D;63505;45.226;37.908;2023-11-22T12:59:08;2.66;88.77
74940;HTU21D;63505;45.226;37.908;2023-11-22T13:01:35;2.69;88.76
74940;HTU21D;63505;45.226;37.908;2023-11-22T13:04:01;2.69;88.73
74940;HTU21D;63505;45.226;37.908;2023-11-22T13:06:27;2.73;88.75
74940;HTU21D;63505;45.226;37.908;2023-11-22T13:08:54;2.74;88.68
74940;HTU21D;63505;45.226;37.908;2023-11-22T13:11:21;2.72;88.70
74940;HTU21D;63505;45.226;37.908;2023-11-22T13:13:47;2.74;88.71
74940;HTU21D;63505;45.226;37.908;2023-11-22T13:16:13;2.76;88.72
74940;HTU21D;63505;45.226;37.908;2023-11-22T13:18:42;2.74;88.67
74940;HTU21D;63505;45.226;37.908;2023-11-22T13:21:08;2.72;88.70
74940;HTU21D;63505;45.226;37.908;2023-11-22T13:23:34;2.74;88.76
74940;HTU21D;63505;45.226;37.908;2023-11-22T13:26:00;2.74;88.69
74940;HTU21D;63505;45.226;37.908;2023-11-22T13:28:26;2.73;88.73
74940;HTU21D;63505;45.226;37.908;2023-11-22T13:30:52;2.78;88.80
74940;HTU21D;63505;45.226;37.908;2023-11-22T13:33:17;2.80;88.70
74940;HTU21D;63505;45.226;37.908;2023-11-22T13:35:44;2.81;88.68
74940;HTU21D;63505;45.226;37.908;2023-11-22T13:38:11;2.81;88.68
74940;HTU21D;63505;45.226;37.908;2023-11-22T13:40:37;2.78;88.63
74940;HTU21D;63505;45.226;37.908;2023-11-22T13:43:06;2.75;88.69
74940;HTU21D;63505;45.226;37.908;2023-11-22T13:45:35;2.74;88.73
74940;HTU21D;63505;45.226;37.908;2023-11-22T13:48:01;2.73;88.75
74940;HTU21D;63505;45.226;37.908;2023-11-22T13:50:32;2.74;88.81
74940;HTU21D;63505;45.226;37.908;2023-11-22T13:52:58;2.75;88.76
74940;HTU21D;63505;45.226;37.908;2023-11-22T13:55:25;2.74;88.76
74940;HTU21D;63505;45.226;37.908;2023-11-22T13:57:56;2.75;88.73
74940;HTU21D;63505;45.226;37.908;2023-11-22T14:00:25;2.72;88.73
74940;HTU21D;63505;45.226;37.908;2023-11-22T14:02:59;2.72;88.71
74940;HTU21D;63505;45.226;37.908;2023-11-22T14:05:32;2.68;88.71
74940;HTU21D;63505;45.226;37.908;2023-11-22T14:08:00;2.67;88.76
74940;HTU21D;63505;45.226;37.908;2023-11-22T14:10:26;2.68;88.80
74940;HTU21D;63505;45.226;37.908;2023-11-22T14:12:52;2.67;88.79
74940;HTU21D;63505;45.226;37.908;2023-11-22T14:15:18;2.66;88.82
74940;HTU21D;63505;45.226;37.908;2023-11-22T14:17:47;2.69;88.82
74940;HTU21D;63505;45.226;37.908;2023-11-22T14:20:16;2.66;88.78
74940;HTU21D;63505;45.226;37.908;2023-11-22T14:22:42;2.66;88.80
74940;HTU21D;63505;45.226;37.908;2023-11-22T14:25:09;2.66;88.79
74940;HTU21D;63505;45.226;37.908;2023-11-22T14:27:43;2.65;88.80
74940;HTU21D;63505;45.226;37.908;2023-11-22T14:30:11;2.66;88.81
74940;HTU21D;63505;45.226;37.908;2023-11-22T14:32:40;2.67;88.85
74940;HTU21D;63505;45.226;37.908;2023-11-22T14:35:06;2.66;88.85
74940;HTU21D;63505;45.226;37.908;2023-11-22T14:37:39;2.66;88.87
74940;HTU21D;63505;45.226;37.908;2023-11-22T14:40:09;2.67;88.89
74940;HTU21D;63505;45.226;37.908;2023-11-22T14:42:46;2.70;88.89
74940;HTU21D;63505;45.226;37.908;2023-11-22T14:45:14;2.70;88.91
74940;HTU21D;63505;45.226;37.908;2023-11-22T14:47:41;2.73;88.87
74940;HTU21D;63505;45.226;37.908;2023-11-22T14:50:08;2.71;88.86
74940;HTU21D;63505;45.226;37.908;2023-11-22T14:52:36;2.73;88.90
74940;HTU21D;63505;45.226;37.908;2023-11-22T14:55:03;2.74;88.91
74940;HTU21D;63505;45.226;37.908;2023-11-22T14:57:31;2.76;88.87
74940;HTU21D;63505;45.226;37.908;2023-11-22T14:59:57;2.74;88.86
74940;HTU21D;63505;45.226;37.908;2023-11-22T15:02:23;2.74;88.83
74940;HTU21D;63505;45.226;37.908;2023-11-22T15:04:49;2.71;88.86
74940;HTU21D;63505;45.226;37.908;2023-11-22T15:07:15;2.73;88.94
74940;HTU21D;63505;45.226;37.908;2023-11-22T15:09:41;2.75;88.92
74940;HTU21D;63505;45.226;37.908;2023-11-22T15:12:07;2.75;88.91
74940;HTU21D;63505;45.226;37.908;2023-11-22T15:14:34;2.75;88.86
74940;HTU21D;63505;45.226;37.908;2023-11-22T15:17:00;2.75;88.86
74940;HTU21D;63505;45.226;37.908;2023-11-22T15:19:28;2.74;88.83
74940;HTU21D;63505;45.226;37.908;2023-11-22T15:21:56;2.74;88.86
74940;HTU21D;63505;45.226;37.908;2023-11-22T15:24:22;2.74;88.85